MSC Fabiola — A8VL5 — position and weather

sailwx.info

Track history (hours):
 
Tides and Currents Weather Stations Pressure Air Temp Water Temp Dewpoint Dewpoint Depression Visibility Wind Speed Wind Dir Waves Ship Positions

MSC Fabiola

Last reported at 2015-Apr-27 04:12 UTC. Time now 2015-May-04 06:58 UTC.
Position N 20°47' E 038°44'.

Length 366 m; draft 13.4 m.

Type: Ship. MMSI: 636092019.

Date/timePositionNaut miles runAvg speedWind from/ knotsBaromVisibWave heightAir tempDewpointWater temp
2015-Apr-27 04:12N 20°47' E 038°44'2414.0
2015-Apr-27 02:27N 21°11' E 038°40'1413.2
2015-Apr-27 01:25N 21°24' E 038°38'1213.6
2015-Apr-27 00:33N 21°36' E 038°37'1413.7
2015-Apr-26 23:30N 21°50' E 038°36'1413.4
2015-Apr-26 22:26N 22°04' E 038°39'1112.8
2015-Apr-26 21:33N 22°13' E 038°47'25 1.8
2015-Apr-26 07:31N 22°32' E 039°05'  
2015-Apr-19 22:31N 35°54' E 025°32'11 9.0
2015-Apr-19 21:18N 36°00' E 025°20'6 8.5
2015-Apr-19 20:33N 36°03' E 025°13'9 8.5
2015-Apr-19 19:32N 36°08' E 025°04'8 8.4
2015-Apr-19 18:33N 36°12' E 024°56'10 8.7
2015-Apr-19 17:21N 36°18' E 024°45'85 8.5
2015-Apr-19 07:21N 37°30' E 023°48'7 9.2
2015-Apr-19 06:33N 37°37' E 023°44'9 9.3
2015-Apr-19 05:33N 37°45' E 023°39'9 8.9
2015-Apr-19 04:33N 37°54' E 023°37'3 3.2
2015-Apr-19 03:28N 37°57' E 023°35'0 0.0
2015-Apr-19 02:16N 37°57' E 023°35'0 0.0
2015-Apr-19 01:10N 37°57' E 023°35'0 0.0
2015-Apr-19 00:22N 37°57' E 023°35'0 0.0
2015-Apr-18 23:31N 37°57' E 023°35'0 0.0
2015-Apr-18 22:28N 37°57' E 023°35'0 0.0
2015-Apr-18 21:28N 37°57' E 023°35'0 0.0
2015-Apr-18 20:31N 37°57' E 023°35'0 0.0
2015-Apr-18 19:31N 37°57' E 023°35'0 0.0
2015-Apr-18 18:31N 37°57' E 023°35'0 0.0
2015-Apr-18 17:28N 37°57' E 023°35'0 0.0
2015-Apr-18 16:28N 37°57' E 023°35'0 0.0
2015-Apr-18 15:31N 37°57' E 023°35'0 0.0
2015-Apr-18 14:25N 37°57' E 023°35'0 0.0
2015-Apr-18 13:31N 37°57' E 023°35'0 0.0
2015-Apr-18 12:31N 37°57' E 023°35'0 0.0
2015-Apr-18 11:31N 37°57' E 023°35'0 0.0
2015-Apr-18 10:31N 37°57' E 023°35'0 0.0
2015-Apr-18 09:31N 37°57' E 023°35'0 0.0
2015-Apr-18 08:31N 37°57' E 023°35'0 0.0
2015-Apr-18 07:31N 37°57' E 023°35'2 1.9
2015-Apr-18 06:33N 37°55' E 023°35'3 3.4
2015-Apr-18 05:33N 37°52' E 023°36'1 1.4
2015-Apr-18 04:33N 37°52' E 023°38'4 4.1
2015-Apr-18 03:33N 37°48' E 023°41'4 4.4
2015-Apr-18 02:33N 37°44' E 023°43'6 5.6
2015-Apr-18 01:33N 37°40' E 023°48'8 8.0
2015-Apr-18 00:33N 37°35' E 023°56'2510.4
2015-Apr-17 22:08N 37°49' E 024°23'  
Track history (hours):
 
Tides and Currents Weather Stations Pressure Air Temp Water Temp Dewpoint Dewpoint Depression Visibility Wind Speed Wind Dir Waves Ship Positions

MSC Fabiola

Last reported at 2015-Apr-27 04:12 UTC. Time now 2015-May-04 06:58 UTC.
Position N 20°47' E 038°44'.

Length 366 m; draft 13.4 m.

Type: Ship. MMSI: 636092019.

Date/timePositionNaut miles runAvg speedWind from/ knotsBaromVisibWave heightAir tempDewpointWater temp
2015-Apr-27 04:12N 20°47' E 038°44'2414.0
2015-Apr-27 02:27N 21°11' E 038°40'1413.2
2015-Apr-27 01:25N 21°24' E 038°38'1213.6
2015-Apr-27 00:33N 21°36' E 038°37'1413.7
2015-Apr-26 23:30N 21°50' E 038°36'1413.4
2015-Apr-26 22:26N 22°04' E 038°39'1112.8
2015-Apr-26 21:33N 22°13' E 038°47'25 1.8
2015-Apr-26 07:31N 22°32' E 039°05'  
2015-Apr-19 22:31N 35°54' E 025°32'11 9.0
2015-Apr-19 21:18N 36°00' E 025°20'6 8.5
2015-Apr-19 20:33N 36°03' E 025°13'9 8.5
2015-Apr-19 19:32N 36°08' E 025°04'8 8.4
2015-Apr-19 18:33N 36°12' E 024°56'10 8.7
2015-Apr-19 17:21N 36°18' E 024°45'85 8.5
2015-Apr-19 07:21N 37°30' E 023°48'7 9.2
2015-Apr-19 06:33N 37°37' E 023°44'9 9.3
2015-Apr-19 05:33N 37°45' E 023°39'9 8.9
2015-Apr-19 04:33N 37°54' E 023°37'3 3.2
2015-Apr-19 03:28N 37°57' E 023°35'0 0.0
2015-Apr-19 02:16N 37°57' E 023°35'0 0.0
2015-Apr-19 01:10N 37°57' E 023°35'0 0.0
2015-Apr-19 00:22N 37°57' E 023°35'0 0.0
2015-Apr-18 23:31N 37°57' E 023°35'0 0.0
2015-Apr-18 22:28N 37°57' E 023°35'0 0.0
2015-Apr-18 21:28N 37°57' E 023°35'0 0.0
2015-Apr-18 20:31N 37°57' E 023°35'0 0.0
2015-Apr-18 19:31N 37°57' E 023°35'0 0.0
2015-Apr-18 18:31N 37°57' E 023°35'0 0.0
2015-Apr-18 17:28N 37°57' E 023°35'0 0.0
2015-Apr-18 16:28N 37°57' E 023°35'0 0.0
2015-Apr-18 15:31N 37°57' E 023°35'0 0.0
2015-Apr-18 14:25N 37°57' E 023°35'0 0.0
2015-Apr-18 13:31N 37°57' E 023°35'0 0.0
2015-Apr-18 12:31N 37°57' E 023°35'0 0.0
2015-Apr-18 11:31N 37°57' E 023°35'0 0.0
2015-Apr-18 10:31N 37°57' E 023°35'0 0.0
2015-Apr-18 09:31N 37°57' E 023°35'0 0.0
2015-Apr-18 08:31N 37°57' E 023°35'0 0.0
2015-Apr-18 07:31N 37°57' E 023°35'2 1.9
2015-Apr-18 06:33N 37°55' E 023°35'3 3.4
2015-Apr-18 05:33N 37°52' E 023°36'1 1.4
2015-Apr-18 04:33N 37°52' E 023°38'4 4.1
2015-Apr-18 03:33N 37°48' E 023°41'4 4.4
2015-Apr-18 02:33N 37°44' E 023°43'6 5.6
2015-Apr-18 01:33N 37°40' E 023°48'8 8.0
2015-Apr-18 00:33N 37°35' E 023°56'2510.4
2015-Apr-17 22:08N 37°49' E 024°23'  

Dump ship's entire track history